sensor_id;sensor_type;location;lat;lon;timestamp;pressure;altitude;pressure_sealevel;temperature;humidity
76132;BME280;64877;50.994;13.650;2023-01-10T00:01:30;98867.31;;;6.38;73.00
76132;BME280;64877;50.994;13.650;2023-01-10T00:03:55;98873.28;;;6.41;73.14
76132;BME280;64877;50.994;13.650;2023-01-10T00:06:20;98879.75;;;6.39;72.68
76132;BME280;64877;50.994;13.650;2023-01-10T00:08:46;98878.66;;;6.41;72.60
76132;BME280;64877;50.994;13.650;2023-01-10T00:11:11;98879.41;;;6.43;72.54
76132;BME280;64877;50.994;13.650;2023-01-10T00:13:55;98895.38;;;6.45;73.00
76132;BME280;64877;50.994;13.650;2023-01-10T00:16:21;98892.81;;;6.43;73.04
76132;BME280;64877;50.994;13.650;2023-01-10T00:18:47;98903.34;;;6.34;72.91
76132;BME280;64877;50.994;13.650;2023-01-10T00:21:12;98903.56;;;6.31;73.50
76132;BME280;64877;50.994;13.650;2023-01-10T00:23:41;98907.00;;;6.33;72.84
76132;BME280;64877;50.994;13.650;2023-01-10T00:26:08;98907.63;;;6.36;72.88
76132;BME280;64877;50.994;13.650;2023-01-10T00:28:33;98904.22;;;6.34;72.73
76132;BME280;64877;50.994;13.650;2023-01-10T00:30:59;98911.72;;;6.29;73.00
76132;BME280;64877;50.994;13.650;2023-01-10T00:33:27;98911.59;;;6.43;73.29
76132;BME280;64877;50.994;13.650;2023-01-10T00:35:52;98915.66;;;6.49;72.49
76132;BME280;64877;50.994;13.650;2023-01-10T00:38:18;98923.91;;;6.46;72.28
76132;BME280;64877;50.994;13.650;2023-01-10T00:40:44;98931.41;;;6.54;71.82
76132;BME280;64877;50.994;13.650;2023-01-10T00:43:10;98929.06;;;6.49;72.72
76132;BME280;64877;50.994;13.650;2023-01-10T00:45:54;98935.53;;;6.46;72.37
76132;BME280;64877;50.994;13.650;2023-01-10T00:48:21;98945.88;;;6.64;72.39
76132;BME280;64877;50.994;13.650;2023-01-10T00:50:46;98946.91;;;6.74;71.33
76132;BME280;64877;50.994;13.650;2023-01-10T00:53:12;98964.44;;;6.67;71.64
76132;BME280;64877;50.994;13.650;2023-01-10T00:55:37;98970.88;;;6.64;71.44
76132;BME280;64877;50.994;13.650;2023-01-10T00:58:04;98972.75;;;6.75;70.82
76132;BME280;64877;50.994;13.650;2023-01-10T01:00:30;98972.81;;;6.62;71.52
76132;BME280;64877;50.994;13.650;2023-01-10T01:02:55;98979.03;;;6.63;71.99
76132;BME280;64877;50.994;13.650;2023-01-10T01:05:21;98991.47;;;6.51;72.26
76132;BME280;64877;50.994;13.650;2023-01-10T01:07:50;98990.09;;;6.58;71.54
76132;BME280;64877;50.994;13.650;2023-01-10T01:10:16;99002.00;;;6.67;71.87
76132;BME280;64877;50.994;13.650;2023-01-10T01:12:55;99002.72;;;6.69;71.67
76132;BME280;64877;50.994;13.650;2023-01-10T01:15:21;99014.88;;;6.62;71.53
76132;BME280;64877;50.994;13.650;2023-01-10T01:17:47;99016.34;;;6.66;71.40
76132;BME280;64877;50.994;13.650;2023-01-10T01:20:13;99021.31;;;6.72;71.55
76132;BME280;64877;50.994;13.650;2023-01-10T01:22:39;99020.53;;;6.70;72.19
76132;BME280;64877;50.994;13.650;2023-01-10T01:25:05;99022.38;;;6.69;71.10
76132;BME280;64877;50.994;13.650;2023-01-10T01:27:31;99021.19;;;6.61;71.18
76132;BME280;64877;50.994;13.650;2023-01-10T01:29:56;99033.63;;;6.74;71.63
76132;BME280;64877;50.994;13.650;2023-01-10T01:32:22;99031.00;;;6.86;71.26
76132;BME280;64877;50.994;13.650;2023-01-10T01:34:48;99029.88;;;6.77;71.13
76132;BME280;64877;50.994;13.650;2023-01-10T01:37:13;99045.53;;;6.70;71.65
76132;BME280;64877;50.994;13.650;2023-01-10T01:39:38;99041.47;;;6.78;71.54
76132;BME280;64877;50.994;13.650;2023-01-10T01:42:05;99050.03;;;6.70;71.40
76132;BME280;64877;50.994;13.650;2023-01-10T01:44:34;99051.56;;;6.74;70.84
76132;BME280;64877;50.994;13.650;2023-01-10T01:47:06;99050.88;;;6.83;71.70
76132;BME280;64877;50.994;13.650;2023-01-10T01:49:38;99056.19;;;6.72;71.57
76132;BME280;64877;50.994;13.650;2023-01-10T01:52:09;99055.22;;;6.60;72.04
76132;BME280;64877;50.994;13.650;2023-01-10T01:54:36;99061.66;;;6.58;72.40
76132;BME280;64877;50.994;13.650;2023-01-10T01:57:10;99063.16;;;6.62;72.40
76132;BME280;64877;50.994;13.650;2023-01-10T01:59:43;99063.59;;;6.56;72.19
76132;BME280;64877;50.994;13.650;2023-01-10T02:02:21;99065.94;;;6.73;71.49
76132;BME280;64877;50.994;13.650;2023-01-10T02:04:56;99061.09;;;6.65;71.61
76132;BME280;64877;50.994;13.650;2023-01-10T02:07:25;99070.66;;;6.69;71.38
76132;BME280;64877;50.994;13.650;2023-01-10T02:09:59;99074.22;;;6.57;71.70
76132;BME280;64877;50.994;13.650;2023-01-10T02:12:28;99072.50;;;6.43;72.14
76132;BME280;64877;50.994;13.650;2023-01-10T02:14:55;99067.47;;;6.52;71.94
76132;BME280;64877;50.994;13.650;2023-01-10T02:17:21;99071.44;;;6.59;72.08
76132;BME280;64877;50.994;13.650;2023-01-10T02:22:17;99078.50;;;6.60;71.98
76132;BME280;64877;50.994;13.650;2023-01-10T02:34:01;99089.13;;;6.48;71.95
76132;BME280;64877;50.994;13.650;2023-01-10T02:39:26;99103.94;;;6.67;72.42
76132;BME280;64877;50.994;13.650;2023-01-10T02:42:04;99098.25;;;6.46;74.48
76132;BME280;64877;50.994;13.650;2023-01-10T02:44:53;99103.19;;;6.52;74.24
76132;BME280;64877;50.994;13.650;2023-01-10T02:47:21;99101.16;;;6.43;75.02
76132;BME280;64877;50.994;13.650;2023-01-10T02:49:48;99119.16;;;6.41;75.04
76132;BME280;64877;50.994;13.650;2023-01-10T02:52:18;99120.59;;;6.46;74.48
76132;BME280;64877;50.994;13.650;2023-01-10T02:54:45;99130.34;;;6.47;74.07
76132;BME280;64877;50.994;13.650;2023-01-10T02:57:18;99144.72;;;6.46;75.07
76132;BME280;64877;50.994;13.650;2023-01-10T03:13:12;99149.94;;;6.22;75.81
76132;BME280;64877;50.994;13.650;2023-01-10T03:15:41;99154.63;;;6.19;75.25
76132;BME280;64877;50.994;13.650;2023-01-10T03:18:13;99160.53;;;6.24;75.52
76132;BME280;64877;50.994;13.650;2023-01-10T03:20:43;99164.41;;;6.20;75.83
76132;BME280;64877;50.994;13.650;2023-01-10T03:23:11;99170.31;;;6.25;75.42
76132;BME280;64877;50.994;13.650;2023-01-10T03:25:39;99165.06;;;6.24;76.03
76132;BME280;64877;50.994;13.650;2023-01-10T03:28:12;99175.97;;;6.20;75.58
76132;BME280;64877;50.994;13.650;2023-01-10T03:33:23;99188.22;;;6.25;75.60
76132;BME280;64877;50.994;13.650;2023-01-10T03:36:06;99187.72;;;6.32;74.95
76132;BME280;64877;50.994;13.650;2023-01-10T03:38:48;99196.69;;;6.31;75.26
76132;BME280;64877;50.994;13.650;2023-01-10T03:41:34;99211.56;;;6.10;76.28
76132;BME280;64877;50.994;13.650;2023-01-10T03:44:09;99214.28;;;6.22;75.47
76132;BME280;64877;50.994;13.650;2023-01-10T03:46:59;99220.28;;;6.26;75.30
76132;BME280;64877;50.994;13.650;2023-01-10T03:49:28;99226.91;;;6.47;74.72
76132;BME280;64877;50.994;13.650;2023-01-10T03:51:56;99230.44;;;6.48;73.96
76132;BME280;64877;50.994;13.650;2023-01-10T03:54:22;99232.94;;;6.24;75.38
76132;BME280;64877;50.994;13.650;2023-01-10T03:56:49;99231.56;;;6.31;74.89
76132;BME280;64877;50.994;13.650;2023-01-10T03:59:20;99230.69;;;6.31;74.93
76132;BME280;64877;50.994;13.650;2023-01-10T04:01:47;99238.78;;;6.43;74.64
76132;BME280;64877;50.994;13.650;2023-01-10T04:04:12;99247.88;;;6.28;74.91
76132;BME280;64877;50.994;13.650;2023-01-10T04:06:38;99253.00;;;6.31;74.12
76132;BME280;64877;50.994;13.650;2023-01-10T04:09:03;99247.09;;;6.26;74.88
76132;BME280;64877;50.994;13.650;2023-01-10T04:11:29;99258.38;;;6.31;74.76
76132;BME280;64877;50.994;13.650;2023-01-10T04:13:54;99261.56;;;6.24;74.84
76132;BME280;64877;50.994;13.650;2023-01-10T04:16:19;99267.25;;;6.19;74.78
76132;BME280;64877;50.994;13.650;2023-01-10T04:18:45;99269.72;;;6.22;75.41
76132;BME280;64877;50.994;13.650;2023-01-10T04:21:10;99279.38;;;6.25;75.03
76132;BME280;64877;50.994;13.650;2023-01-10T04:23:36;99277.56;;;6.25;74.91
76132;BME280;64877;50.994;13.650;2023-01-10T04:26:01;99280.66;;;6.19;74.48
76132;BME280;64877;50.994;13.650;2023-01-10T04:28:26;99279.06;;;6.29;74.57
76132;BME280;64877;50.994;13.650;2023-01-10T04:30:52;99292.22;;;6.19;75.21
76132;BME280;64877;50.994;13.650;2023-01-10T04:33:17;99300.09;;;6.22;75.11
76132;BME280;64877;50.994;13.650;2023-01-10T04:35:50;99301.50;;;6.28;75.12
76132;BME280;64877;50.994;13.650;2023-01-10T04:38:16;99308.16;;;6.35;73.99
76132;BME280;64877;50.994;13.650;2023-01-10T04:40:42;99317.69;;;6.27;74.63
76132;BME280;64877;50.994;13.650;2023-01-10T04:43:08;99326.38;;;6.30;74.56
76132;BME280;64877;50.994;13.650;2023-01-10T04:45:33;99326.38;;;6.30;74.93
76132;BME280;64877;50.994;13.650;2023-01-10T04:47:58;99331.56;;;6.33;74.98
76132;BME280;64877;50.994;13.650;2023-01-10T04:50:24;99343.25;;;6.32;74.33
76132;BME280;64877;50.994;13.650;2023-01-10T04:52:50;99342.88;;;6.24;74.75
76132;BME280;64877;50.994;13.650;2023-01-10T04:55:16;99348.41;;;6.21;75.07
76132;BME280;64877;50.994;13.650;2023-01-10T04:57:41;99363.66;;;6.20;75.22
76132;BME280;64877;50.994;13.650;2023-01-10T05:00:08;99359.97;;;6.36;74.85
76132;BME280;64877;50.994;13.650;2023-01-10T05:02:33;99358.78;;;6.27;74.38
76132;BME280;64877;50.994;13.650;2023-01-10T05:04:59;99365.47;;;6.20;74.83
76132;BME280;64877;50.994;13.650;2023-01-10T05:07:24;99371.22;;;6.28;74.35
76132;BME280;64877;50.994;13.650;2023-01-10T05:09:50;99366.81;;;6.27;74.74
76132;BME280;64877;50.994;13.650;2023-01-10T05:12:15;99380.97;;;6.29;74.49
76132;BME280;64877;50.994;13.650;2023-01-10T05:14:40;99382.97;;;6.26;74.42
76132;BME280;64877;50.994;13.650;2023-01-10T05:17:06;99395.44;;;6.27;74.75
76132;BME280;64877;50.994;13.650;2023-01-10T05:19:31;99393.34;;;6.32;74.82
76132;BME280;64877;50.994;13.650;2023-01-10T05:21:57;99396.19;;;6.43;74.33
76132;BME280;64877;50.994;13.650;2023-01-10T05:24:22;99406.53;;;6.35;74.09
76132;BME280;64877;50.994;13.650;2023-01-10T05:26:47;99402.44;;;6.29;74.57
76132;BME280;64877;50.994;13.650;2023-01-10T05:29:13;99404.25;;;6.29;74.36
76132;BME280;64877;50.994;13.650;2023-01-10T05:31:41;99407.22;;;6.24;74.75
76132;BME280;64877;50.994;13.650;2023-01-10T05:34:10;99405.50;;;6.23;74.32
76132;BME280;64877;50.994;13.650;2023-01-10T05:36:36;99414.88;;;6.30;74.04
76132;BME280;64877;50.994;13.650;2023-01-10T05:39:02;99418.34;;;6.18;75.26
76132;BME280;64877;50.994;13.650;2023-01-10T05:41:27;99425.03;;;6.25;74.14
76132;BME280;64877;50.994;13.650;2023-01-10T05:43:53;99430.38;;;6.25;74.44
76132;BME280;64877;50.994;13.650;2023-01-10T05:46:18;99425.53;;;6.32;74.69
76132;BME280;64877;50.994;13.650;2023-01-10T05:48:43;99428.19;;;6.32;74.57
76132;BME280;64877;50.994;13.650;2023-01-10T05:51:09;99434.50;;;6.31;74.77
76132;BME280;64877;50.994;13.650;2023-01-10T05:53:34;99435.75;;;6.25;75.24
76132;BME280;64877;50.994;13.650;2023-01-10T05:56:00;99443.09;;;6.36;74.76
76132;BME280;64877;50.994;13.650;2023-01-10T05:58:27;99449.09;;;6.27;75.09
76132;BME280;64877;50.994;13.650;2023-01-10T06:00:53;99460.06;;;6.36;74.27
76132;BME280;64877;50.994;13.650;2023-01-10T06:03:20;99458.56;;;6.32;74.64
76132;BME280;64877;50.994;13.650;2023-01-10T06:05:45;99473.88;;;6.30;74.16
76132;BME280;64877;50.994;13.650;2023-01-10T06:08:11;99478.38;;;6.30;74.68
76132;BME280;64877;50.994;13.650;2023-01-10T06:10:36;99485.56;;;6.29;74.26
76132;BME280;64877;50.994;13.650;2023-01-10T06:13:02;99483.72;;;6.30;74.84
76132;BME280;64877;50.994;13.650;2023-01-10T06:15:29;99485.56;;;6.29;73.76
76132;BME280;64877;50.994;13.650;2023-01-10T06:17:54;99493.59;;;6.29;74.63
76132;BME280;64877;50.994;13.650;2023-01-10T06:20:20;99497.63;;;6.22;75.19
76132;BME280;64877;50.994;13.650;2023-01-10T06:22:45;99503.94;;;6.21;74.81
76132;BME280;64877;50.994;13.650;2023-01-10T06:25:12;99507.75;;;6.31;74.23
76132;BME280;64877;50.994;13.650;2023-01-10T06:27:39;99510.84;;;6.25;74.97
76132;BME280;64877;50.994;13.650;2023-01-10T06:30:05;99516.41;;;6.22;75.50
76132;BME280;64877;50.994;13.650;2023-01-10T06:32:30;99518.19;;;6.36;74.92
76132;BME280;64877;50.994;13.650;2023-01-10T06:34:56;99524.81;;;6.30;74.67
76132;BME280;64877;50.994;13.650;2023-01-10T06:37:21;99540.91;;;6.30;75.10
76132;BME280;64877;50.994;13.650;2023-01-10T06:39:47;99539.38;;;6.26;74.57
76132;BME280;64877;50.994;13.650;2023-01-10T06:42:12;99543.97;;;6.38;74.27
76132;BME280;64877;50.994;13.650;2023-01-10T06:44:37;99544.94;;;6.23;75.04
76132;BME280;64877;50.994;13.650;2023-01-10T06:47:03;99554.59;;;6.26;75.17
76132;BME280;64877;50.994;13.650;2023-01-10T06:49:28;99549.72;;;6.18;74.54
76132;BME280;64877;50.994;13.650;2023-01-10T06:51:54;99558.25;;;6.25;74.45
76132;BME280;64877;50.994;13.650;2023-01-10T06:54:19;99571.16;;;6.18;75.11
76132;BME280;64877;50.994;13.650;2023-01-10T06:56:47;99577.66;;;6.14;74.32
76132;BME280;64877;50.994;13.650;2023-01-10T06:59:12;99586.66;;;6.13;74.98
76132;BME280;64877;50.994;13.650;2023-01-10T07:01:38;99588.69;;;6.24;74.74
76132;BME280;64877;50.994;13.650;2023-01-10T07:04:03;99582.28;;;6.26;75.27
76132;BME280;64877;50.994;13.650;2023-01-10T07:06:29;99589.53;;;6.10;75.18
76132;BME280;64877;50.994;13.650;2023-01-10T07:08:54;99595.69;;;6.12;76.11
76132;BME280;64877;50.994;13.650;2023-01-10T07:11:20;99596.72;;;6.09;75.21
76132;BME280;64877;50.994;13.650;2023-01-10T07:13:45;99600.84;;;6.15;75.10
76132;BME280;64877;50.994;13.650;2023-01-10T07:16:13;99608.69;;;6.18;75.53
76132;BME280;64877;50.994;13.650;2023-01-10T07:18:39;99615.03;;;6.17;74.76
76132;BME280;64877;50.994;13.650;2023-01-10T07:21:05;99623.66;;;6.22;75.33
76132;BME280;64877;50.994;13.650;2023-01-10T07:23:30;99630.59;;;6.10;75.47
76132;BME280;64877;50.994;13.650;2023-01-10T07:25:57;99631.00;;;6.18;75.70
76132;BME280;64877;50.994;13.650;2023-01-10T07:28:23;99634.19;;;6.25;75.01
76132;BME280;64877;50.994;13.650;2023-01-10T07:30:48;99638.78;;;6.23;75.97
76132;BME280;64877;50.994;13.650;2023-01-10T07:33:14;99651.59;;;6.18;75.54
76132;BME280;64877;50.994;13.650;2023-01-10T07:35:40;99661.91;;;6.10;76.35
76132;BME280;64877;50.994;13.650;2023-01-10T07:38:05;99670.00;;;6.24;75.92
76132;BME280;64877;50.994;13.650;2023-01-10T07:40:30;99667.16;;;6.41;75.40
76132;BME280;64877;50.994;13.650;2023-01-10T07:42:57;99672.03;;;6.35;75.62
76132;BME280;64877;50.994;13.650;2023-01-10T07:45:23;99678.75;;;6.28;76.27
76132;BME280;64877;50.994;13.650;2023-01-10T07:47:48;99673.81;;;6.20;76.65
76132;BME280;64877;50.994;13.650;2023-01-10T07:50:14;99678.03;;;6.24;75.81
76132;BME280;64877;50.994;13.650;2023-01-10T07:52:40;99681.75;;;6.21;77.15
76132;BME280;64877;50.994;13.650;2023-01-10T07:55:06;99691.63;;;6.21;77.26
76132;BME280;64877;50.994;13.650;2023-01-10T07:57:31;99686.84;;;6.26;76.74
76132;BME280;64877;50.994;13.650;2023-01-10T07:59:56;99696.97;;;6.21;76.52
76132;BME280;64877;50.994;13.650;2023-01-10T08:02:22;99699.06;;;6.16;76.80
76132;BME280;64877;50.994;13.650;2023-01-10T08:04:47;99708.41;;;6.25;77.13
76132;BME280;64877;50.994;13.650;2023-01-10T08:07:13;99699.91;;;6.32;75.76
76132;BME280;64877;50.994;13.650;2023-01-10T08:09:38;99703.84;;;6.41;75.88
76132;BME280;64877;50.994;13.650;2023-01-10T08:12:04;99713.06;;;6.37;76.59
76132;BME280;64877;50.994;13.650;2023-01-10T08:14:29;99712.47;;;6.32;75.99
76132;BME280;64877;50.994;13.650;2023-01-10T08:16:54;99718.22;;;6.40;75.31
76132;BME280;64877;50.994;13.650;2023-01-10T08:19:20;99718.94;;;6.58;81.52
76132;BME280;64877;50.994;13.650;2023-01-10T08:21:45;99719.75;;;6.88;82.09
76132;BME280;64877;50.994;13.650;2023-01-10T08:24:11;99716.88;;;7.06;75.25
76132;BME280;64877;50.994;13.650;2023-01-10T08:26:36;99722.34;;;6.90;73.84
76132;BME280;64877;50.994;13.650;2023-01-10T08:29:01;99733.91;;;6.62;74.49
76132;BME280;64877;50.994;13.650;2023-01-10T08:31:27;99742.13;;;6.59;75.37
76132;BME280;64877;50.994;13.650;2023-01-10T08:33:52;99745.47;;;6.48;75.12
76132;BME280;64877;50.994;13.650;2023-01-10T08:36:19;99749.38;;;6.42;75.12
76132;BME280;64877;50.994;13.650;2023-01-10T08:38:46;99757.41;;;6.42;75.44
76132;BME280;64877;50.994;13.650;2023-01-10T08:41:12;99748.84;;;6.36;75.93
76132;BME280;64877;50.994;13.650;2023-01-10T08:43:38;99756.13;;;6.34;76.51
76132;BME280;64877;50.994;13.650;2023-01-10T08:46:05;99750.94;;;6.31;76.35
76132;BME280;64877;50.994;13.650;2023-01-10T08:48:30;99759.19;;;6.28;76.77
76132;BME280;64877;50.994;13.650;2023-01-10T08:50:55;99762.25;;;6.36;76.47
76132;BME280;64877;50.994;13.650;2023-01-10T08:53:21;99774.66;;;6.38;76.64
76132;BME280;64877;50.994;13.650;2023-01-10T08:55:48;99776.38;;;6.39;76.08
76132;BME280;64877;50.994;13.650;2023-01-10T08:58:13;99782.91;;;6.50;75.75
76132;BME280;64877;50.994;13.650;2023-01-10T09:00:39;99777.66;;;6.48;75.27
76132;BME280;64877;50.994;13.650;2023-01-10T09:03:05;99781.47;;;6.44;75.01
76132;BME280;64877;50.994;13.650;2023-01-10T09:05:31;99788.47;;;6.46;75.40
76132;BME280;64877;50.994;13.650;2023-01-10T09:07:58;99789.16;;;6.50;74.74
76132;BME280;64877;50.994;13.650;2023-01-10T09:10:27;99800.41;;;6.57;75.55
76132;BME280;64877;50.994;13.650;2023-01-10T09:12:52;99800.91;;;6.63;74.85
76132;BME280;64877;50.994;13.650;2023-01-10T09:15:25;99809.97;;;6.61;75.44
76132;BME280;64877;50.994;13.650;2023-01-10T09:17:55;99811.47;;;6.66;75.28
76132;BME280;64877;50.994;13.650;2023-01-10T09:20:25;99814.41;;;6.62;75.32
76132;BME280;64877;50.994;13.650;2023-01-10T09:22:51;99822.53;;;6.60;75.91
76132;BME280;64877;50.994;13.650;2023-01-10T09:25:17;99833.53;;;6.56;75.90
76132;BME280;64877;50.994;13.650;2023-01-10T09:27:43;99835.19;;;6.58;75.49
76132;BME280;64877;50.994;13.650;2023-01-10T09:30:08;99839.69;;;6.58;76.11
76132;BME280;64877;50.994;13.650;2023-01-10T09:32:34;99841.56;;;6.56;76.22
76132;BME280;64877;50.994;13.650;2023-01-10T09:35:00;99841.94;;;6.50;76.43
76132;BME280;64877;50.994;13.650;2023-01-10T09:37:25;99851.81;;;6.49;76.99
76132;BME280;64877;50.994;13.650;2023-01-10T09:39:50;99850.94;;;6.48;77.30
76132;BME280;64877;50.994;13.650;2023-01-10T09:42:42;99849.72;;;6.54;77.08
76132;BME280;64877;50.994;13.650;2023-01-10T09:45:20;99859.44;;;6.57;77.48
76132;BME280;64877;50.994;13.650;2023-01-10T09:48:01;99857.06;;;6.51;77.86
76132;BME280;64877;50.994;13.650;2023-01-10T09:50:44;99852.56;;;6.51;78.52
76132;BME280;64877;50.994;13.650;2023-01-10T09:53:18;99857.59;;;6.57;77.37
76132;BME280;64877;50.994;13.650;2023-01-10T09:55:49;99870.91;;;6.59;77.62
76132;BME280;64877;50.994;13.650;2023-01-10T09:58:17;99868.94;;;6.62;77.84
76132;BME280;64877;50.994;13.650;2023-01-10T10:01:01;99862.34;;;6.68;77.51
76132;BME280;64877;50.994;13.650;2023-01-10T10:06:12;99863.09;;;6.70;76.97
76132;BME280;64877;50.994;13.650;2023-01-10T10:08:43;99857.38;;;6.76;76.07
76132;BME280;64877;50.994;13.650;2023-01-10T10:19:18;99861.81;;;6.77;75.01
76132;BME280;64877;50.994;13.650;2023-01-10T10:27:48;99865.63;;;6.73;74.15
76132;BME280;64877;50.994;13.650;2023-01-10T10:30:16;99871.22;;;6.84;75.07
76132;BME280;64877;50.994;13.650;2023-01-10T10:35:54;99874.00;;;6.83;74.46
76132;BME280;64877;50.994;13.650;2023-01-10T10:38:27;99884.28;;;6.90;73.62
76132;BME280;64877;50.994;13.650;2023-01-10T10:40:55;99872.50;;;6.93;73.59
76132;BME280;64877;50.994;13.650;2023-01-10T10:43:24;99871.44;;;6.95;73.03
76132;BME280;64877;50.994;13.650;2023-01-10T10:46:07;99866.44;;;7.19;71.73
76132;BME280;64877;50.994;13.650;2023-01-10T10:51:33;99868.59;;;7.57;70.74
76132;BME280;64877;50.994;13.650;2023-01-10T10:54:03;99878.66;;;7.54;70.30
76132;BME280;64877;50.994;13.650;2023-01-10T10:56:30;99873.97;;;7.43;70.99
76132;BME280;64877;50.994;13.650;2023-01-10T10:58:57;99883.06;;;7.40;71.23
76132;BME280;64877;50.994;13.650;2023-01-10T11:01:24;99880.75;;;7.34;71.97
76132;BME280;64877;50.994;13.650;2023-01-10T11:04:07;99884.56;;;7.30;71.94
76132;BME280;64877;50.994;13.650;2023-01-10T11:06:35;99893.38;;;7.18;72.14
76132;BME280;64877;50.994;13.650;2023-01-10T11:09:04;99891.28;;;7.23;71.93
76132;BME280;64877;50.994;13.650;2023-01-10T11:11:39;99891.66;;;7.17;71.80
76132;BME280;64877;50.994;13.650;2023-01-10T11:14:08;99891.84;;;7.14;72.02
76132;BME280;64877;50.994;13.650;2023-01-10T11:22:04;99901.03;;;7.10;72.51
76132;BME280;64877;50.994;13.650;2023-01-10T11:24:38;99898.28;;;7.11;71.59
76132;BME280;64877;50.994;13.650;2023-01-10T11:29:46;99902.41;;;7.17;71.72
76132;BME280;64877;50.994;13.650;2023-01-10T11:32:16;99905.75;;;7.20;71.29
76132;BME280;64877;50.994;13.650;2023-01-10T11:34:51;99896.38;;;7.28;71.59
76132;BME280;64877;50.994;13.650;2023-01-10T11:37:21;99890.44;;;7.22;71.20
76132;BME280;64877;50.994;13.650;2023-01-10T11:40:08;99894.38;;;7.31;71.82
76132;BME280;64877;50.994;13.650;2023-01-10T11:42:38;99885.16;;;7.35;70.78
76132;BME280;64877;50.994;13.650;2023-01-10T11:50:22;99888.44;;;7.40;70.11
76132;BME280;64877;50.994;13.650;2023-01-10T11:52:49;99894.78;;;7.39;69.77
76132;BME280;64877;50.994;13.650;2023-01-10T11:55:21;99900.56;;;7.47;69.39
76132;BME280;64877;50.994;13.650;2023-01-10T11:58:04;99899.88;;;7.44;68.80
76132;BME280;64877;50.994;13.650;2023-01-10T12:00:42;99904.19;;;7.46;68.93
76132;BME280;64877;50.994;13.650;2023-01-10T12:03:30;99903.25;;;7.47;67.91
76132;BME280;64877;50.994;13.650;2023-01-10T12:06:16;99905.13;;;7.45;68.00
76132;BME280;64877;50.994;13.650;2023-01-10T12:08:42;99917.53;;;7.48;68.44
76132;BME280;64877;50.994;13.650;2023-01-10T12:13:51;99913.41;;;7.42;68.49
76132;BME280;64877;50.994;13.650;2023-01-10T12:16:25;99912.25;;;7.46;68.77
76132;BME280;64877;50.994;13.650;2023-01-10T12:18:54;99919.53;;;7.44;68.14
76132;BME280;64877;50.994;13.650;2023-01-10T12:21:34;99922.22;;;7.44;68.18
76132;BME280;64877;50.994;13.650;2023-01-10T12:24:27;99929.69;;;7.39;67.49
76132;BME280;64877;50.994;13.650;2023-01-10T12:26:50;99930.56;;;7.40;67.93
76132;BME280;64877;50.994;13.650;2023-01-10T12:29:27;99939.69;;;7.37;67.86
76132;BME280;64877;50.994;13.650;2023-01-10T12:31:54;99945.81;;;7.39;67.74
76132;BME280;64877;50.994;13.650;2023-01-10T12:34:25;99946.78;;;7.38;67.66
76132;BME280;64877;50.994;13.650;2023-01-10T12:39:37;99935.06;;;7.39;67.83
76132;BME280;64877;50.994;13.650;2023-01-10T12:45:16;99934.13;;;7.55;67.06
76132;BME280;64877;50.994;13.650;2023-01-10T12:47:58;99942.03;;;7.58;66.89
76132;BME280;64877;50.994;13.650;2023-01-10T12:50:33;99934.94;;;7.71;66.26
76132;BME280;64877;50.994;13.650;2023-01-10T12:55:42;99952.59;;;7.75;65.71
76132;BME280;64877;50.994;13.650;2023-01-10T12:58:17;99961.25;;;7.80;65.23
76132;BME280;64877;50.994;13.650;2023-01-10T13:00:54;99959.16;;;7.71;64.86
76132;BME280;64877;50.994;13.650;2023-01-10T13:03:27;99961.31;;;7.64;64.73
76132;BME280;64877;50.994;13.650;2023-01-10T13:05:53;99963.16;;;7.64;65.41
76132;BME280;64877;50.994;13.650;2023-01-10T13:08:23;99973.72;;;7.67;64.69
76132;BME280;64877;50.994;13.650;2023-01-10T13:10:53;99967.84;;;7.60;64.49
76132;BME280;64877;50.994;13.650;2023-01-10T13:13:42;99967.44;;;7.52;65.45
76132;BME280;64877;50.994;13.650;2023-01-10T13:18:57;99964.06;;;7.48;65.59
76132;BME280;64877;50.994;13.650;2023-01-10T13:21:24;99966.19;;;7.43;66.21
76132;BME280;64877;50.994;13.650;2023-01-10T13:23:52;99966.94;;;7.45;66.42
76132;BME280;64877;50.994;13.650;2023-01-10T13:26:19;99963.09;;;7.49;65.95
76132;BME280;64877;50.994;13.650;2023-01-10T13:28:58;99967.81;;;7.46;65.33
76132;BME280;64877;50.994;13.650;2023-01-10T13:31:27;99976.53;;;7.49;65.78
76132;BME280;64877;50.994;13.650;2023-01-10T13:33:59;99973.88;;;7.49;64.72
76132;BME280;64877;50.994;13.650;2023-01-10T13:36:27;99980.19;;;7.48;64.61
76132;BME280;64877;50.994;13.650;2023-01-10T13:38:54;99968.69;;;7.46;64.56
76132;BME280;64877;50.994;13.650;2023-01-10T13:41:21;99980.31;;;7.47;63.49
76132;BME280;64877;50.994;13.650;2023-01-10T13:44:12;99978.91;;;7.40;64.31
76132;BME280;64877;50.994;13.650;2023-01-10T13:46:48;99987.66;;;7.43;64.25
76132;BME280;64877;50.994;13.650;2023-01-10T13:49:23;99996.75;;;7.41;64.49
76132;BME280;64877;50.994;13.650;2023-01-10T13:54:58;100002.13;;;7.41;63.99
76132;BME280;64877;50.994;13.650;2023-01-10T13:57:50;100003.03;;;7.41;64.15
76132;BME280;64877;50.994;13.650;2023-01-10T14:00:44;100009.34;;;7.40;64.10
76132;BME280;64877;50.994;13.650;2023-01-10T14:14:28;100003.38;;;7.35;65.84
76132;BME280;64877;50.994;13.650;2023-01-10T14:19:35;99998.09;;;7.34;65.06
76132;BME280;64877;50.994;13.650;2023-01-10T14:22:02;100012.75;;;7.28;64.48
76132;BME280;64877;50.994;13.650;2023-01-10T14:27:00;100012.25;;;7.21;64.75
76132;BME280;64877;50.994;13.650;2023-01-10T14:29:30;100012.06;;;7.24;64.84
76132;BME280;64877;50.994;13.650;2023-01-10T14:31:57;100013.13;;;7.22;65.29
76132;BME280;64877;50.994;13.650;2023-01-10T14:34:32;100012.25;;;7.21;63.91
76132;BME280;64877;50.994;13.650;2023-01-10T14:37:13;100009.47;;;7.23;65.22
76132;BME280;64877;50.994;13.650;2023-01-10T14:39:42;100002.38;;;7.22;65.75
76132;BME280;64877;50.994;13.650;2023-01-10T14:42:14;100007.81;;;7.20;64.17
76132;BME280;64877;50.994;13.650;2023-01-10T14:44:50;100007.22;;;7.15;64.61
76132;BME280;64877;50.994;13.650;2023-01-10T14:47:32;100012.09;;;7.09;64.46
76132;BME280;64877;50.994;13.650;2023-01-10T14:49:58;100005.00;;;7.08;65.11